Time;durP1;ratioP1;P1;durP2;ratioP2;P2;SDS_P1;SDS_P2;PMS_P1;PMS_P2;Temp;Humidity;BMP_temperature;BMP_pressure;BME280_temperature;BME280_humidity;BME280_pressure;Samples;Min_cycle;Max_cycle;Signal;HPM_P1;HPM_P2
2023/01/25 00:01:14;;;;;;;19.95;11.13;;;;;;;1.11;100.00;100353.44;5053616;28;20447;-63
2023/01/25 00:03:59;;;;;;;23.85;10.82;;;;;;;1.14;100.00;100352.59;5055527;28;20083;-62
2023/01/25 00:06:44;;;;;;;19.58;10.93;;;;;;;1.35;100.00;100355.06;5056450;28;20047;-62
2023/01/25 00:09:29;;;;;;;17.95;11.10;;;;;;;1.10;100.00;100359.47;5054873;28;20099;-62
2023/01/25 00:12:14;;;;;;;17.38;11.20;;;;;;;1.27;100.00;100355.97;5054418;28;20073;-62
2023/01/25 00:14:58;;;;;;;17.77;10.88;;;;;;;1.21;100.00;100349.09;5056168;28;20368;-62
2023/01/25 00:17:43;;;;;;;17.40;11.18;;;;;;;1.17;100.00;100350.84;5055831;28;20037;-63
2023/01/25 00:20:28;;;;;;;18.48;11.02;;;;;;;1.30;100.00;100363.72;5055125;28;20040;-63
2023/01/25 00:23:14;;;;;;;18.48;11.57;;;;;;;1.18;100.00;100359.44;5049562;28;20052;-63
2023/01/25 00:25:59;;;;;;;20.05;12.02;;;;;;;1.10;100.00;100354.31;5035208;28;20042;-63
2023/01/25 00:28:53;;;;;;;17.58;10.35;;;;;;;0.81;100.00;100348.41;5036558;28;20056;-62
2023/01/25 00:32:02;;;;;;;16.10;10.57;;;;;;;0.90;100.00;100352.66;5034914;28;20103;-63
2023/01/25 00:34:48;;;;;;;18.05;10.88;;;;;;;1.01;100.00;100365.56;5061097;28;20064;-62
2023/01/25 00:37:38;;;;;;;19.55;10.68;;;;;;;1.00;100.00;100362.97;5035833;28;20052;-63
2023/01/25 00:40:23;;;;;;;19.02;11.05;;;;;;;1.16;100.00;100374.09;5034383;28;20400;-63
2023/01/25 00:43:07;;;;;;;20.48;12.20;;;;;;;1.02;100.00;100363.81;5035751;28;20063;-63
2023/01/25 00:45:59;;;;;;;20.38;12.13;;;;;;;1.09;100.00;100366.34;5034675;28;20045;-63
2023/01/25 00:48:44;;;;;;;18.75;11.30;;;;;;;1.05;100.00;100371.53;5034048;28;20043;-63
2023/01/25 00:51:28;;;;;;;19.85;11.43;;;;;;;1.36;100.00;100366.25;5055059;28;20381;-63
2023/01/25 00:54:13;;;;;;;21.55;12.10;;;;;;;1.25;100.00;100371.47;5055340;28;20102;-63
2023/01/25 00:56:58;;;;;;;21.95;12.18;;;;;;;1.04;100.00;100372.41;5036866;28;20088;-63
2023/01/25 00:59:43;;;;;;;18.77;11.90;;;;;;;0.89;100.00;100381.06;5046520;28;20045;-63
2023/01/25 01:02:29;;;;;;;18.52;11.40;;;;;;;0.98;100.00;100373.28;5054265;28;20044;-63
2023/01/25 01:05:14;;;;;;;21.73;12.57;;;;;;;0.68;100.00;100375.09;5053763;28;20079;-64
2023/01/25 01:07:58;;;;;;;18.67;11.05;;;;;;;1.02;100.00;100379.28;5053717;28;20426;-63
2023/01/25 01:10:43;;;;;;;20.10;11.05;;;;;;;0.90;100.00;100380.22;5054141;28;20036;-63
2023/01/25 01:13:58;;;;;;;20.83;12.02;;;;;;;0.76;100.00;100381.09;5054042;28;20037;-63
2023/01/25 01:16:43;;;;;;;18.75;10.95;;;;;;;0.84;100.00;100387.09;5054102;28;20051;-63
2023/01/25 01:24:37;;;;;;;19.27;11.98;;;;;;;0.83;100.00;100374.19;5054735;28;20043;-63
2023/01/25 01:27:22;;;;;;;20.45;11.07;;;;;;;0.82;100.00;100370.75;5040030;28;20033;-62
2023/01/25 01:30:07;;;;;;;19.30;11.25;;;;;;;0.74;100.00;100372.50;5020092;28;20124;-62
2023/01/25 01:32:52;;;;;;;16.63;10.15;;;;;;;0.76;100.00;100372.47;5033398;28;20095;-62
2023/01/25 01:35:36;;;;;;;20.23;10.73;;;;;;;0.83;100.00;100369.88;5033650;28;20041;-62
2023/01/25 01:38:21;;;;;;;18.38;10.95;;;;;;;0.87;100.00;100373.31;5033201;28;20449;-62
2023/01/25 01:41:06;;;;;;;20.40;12.23;;;;;;;0.75;100.00;100363.03;5034052;28;20179;-62
2023/01/25 01:43:52;;;;;;;20.70;11.50;;;;;;;0.96;100.00;100369.88;5033126;28;20531;-62
2023/01/25 01:46:38;;;;;;;20.38;11.13;;;;;;;0.91;100.00;100376.75;5033063;28;20124;-62
2023/01/25 01:49:30;;;;;;;22.25;12.50;;;;;;;0.64;100.00;100369.06;5019121;28;20120;-64
2023/01/25 01:52:36;;;;;;;21.90;13.15;;;;;;;0.32;100.00;100372.56;5007682;28;20038;-62
2023/01/25 01:55:23;;;;;;;21.55;12.88;;;;;;;0.56;100.00;100363.06;5032932;28;20045;-62
2023/01/25 01:58:09;;;;;;;20.80;12.73;;;;;;;0.35;100.00;100360.53;5032074;28;20108;-62
2023/01/25 02:00:54;;;;;;;20.55;12.60;;;;;;;0.26;100.00;100357.97;5033216;28;20034;-62
2023/01/25 02:03:39;;;;;;;23.75;12.80;;;;;;;0.24;100.00;100355.34;5033772;28;20037;-62
2023/01/25 02:06:35;;;;;;;19.98;11.73;;;;;;;0.31;100.00;100356.22;5037550;28;20033;-63
2023/01/25 02:09:23;;;;;;;21.20;12.73;;;;;;;0.31;100.00;100356.22;5052424;28;20539;-62
2023/01/25 02:12:10;;;;;;;18.80;11.75;;;;;;;0.39;100.00;100345.91;5052580;28;20041;-62
2023/01/25 02:14:55;;;;;;;18.45;11.25;;;;;;;0.49;100.00;100352.75;5054009;28;20037;-63
2023/01/25 02:17:41;;;;;;;20.58;13.23;;;;;;;0.39;100.00;100345.03;5031463;28;20108;-63
2023/01/25 02:20:41;;;;;;;23.52;12.93;;;;;;;0.42;100.00;100348.50;5018161;28;20385;-63
2023/01/25 02:23:33;;;;;;;21.70;12.98;;;;;;;0.49;100.00;100345.03;5052778;28;20033;-63
2023/01/25 02:26:18;;;;;;;26.33;12.75;;;;;;;0.57;100.00;100347.56;5053790;28;20049;-63
2023/01/25 02:29:06;;;;;;;21.25;12.40;;;;;;;0.53;100.00;100351.03;5046834;28;20072;-64
2023/01/25 02:32:06;;;;;;;21.25;12.73;;;;;;;0.30;100.00;100348.47;5019128;28;20372;-63
2023/01/25 02:34:51;;;;;;;20.27;12.10;;;;;;;0.31;100.00;100345.91;5018872;28;20044;-63
2023/01/25 02:37:35;;;;;;;20.40;11.48;;;;;;;0.16;100.00;100346.78;5035722;28;20044;-63
2023/01/25 02:40:20;;;;;;;21.02;12.60;;;;;;;0.03;100.00;100342.47;5032425;28;20091;-64
2023/01/25 02:43:05;;;;;;;21.75;12.55;;;;;;;0.16;100.00;100340.75;5026255;28;20041;-64
2023/01/25 02:45:59;;;;;;;18.95;11.52;;;;;;;0.15;100.00;100349.38;5032637;28;20049;-63
2023/01/25 02:48:44;;;;;;;18.73;11.75;;;;;;;0.30;100.00;100339.03;5032334;28;20095;-62
2023/01/25 02:51:33;;;;;;;17.95;10.82;;;;;;;0.33;100.00;100335.56;5032082;28;20041;-62
2023/01/25 02:54:19;;;;;;;17.30;10.90;;;;;;;0.38;100.00;100328.69;5032217;28;20025;-64
2023/01/25 02:57:04;;;;;;;18.38;10.38;;;;;;;0.67;100.00;100326.94;5032961;28;20049;-62
2023/01/25 02:59:57;;;;;;;17.60;10.63;;;;;;;0.51;100.00;100319.22;5031271;28;20152;-64
2023/01/25 03:02:44;;;;;;;18.20;10.65;;;;;;;0.46;100.00;100316.66;5031587;28;20534;-63
2023/01/25 03:05:29;;;;;;;16.25;10.18;;;;;;;0.47;100.00;100304.63;5032902;28;20048;-63
2023/01/25 03:08:13;;;;;;;17.83;10.65;;;;;;;0.56;100.00;100312.34;5031895;28;20038;-62
2023/01/25 03:11:01;;;;;;;16.83;10.38;;;;;;;0.39;100.00;100306.34;5031840;28;20038;-62
2023/01/25 03:13:48;;;;;;;16.42;10.35;;;;;;;0.44;100.00;100307.22;5032114;28;20106;-62
2023/01/25 03:16:32;;;;;;;14.55;9.35;;;;;;;0.42;100.00;100306.34;5031185;28;20088;-61
2023/01/25 03:19:19;;;;;;;15.48;10.23;;;;;;;0.67;100.00;100301.97;5041058;28;20047;-62
2023/01/25 03:22:05;;;;;;;14.73;9.57;;;;;;;0.58;100.00;100294.28;5054221;28;20041;-62
2023/01/25 03:24:51;;;;;;;16.70;10.10;;;;;;;0.51;100.00;100300.31;5056012;28;20045;-63
2023/01/25 03:27:35;;;;;;;16.38;9.13;;;;;;;0.66;100.00;100302.00;5056170;28;20041;-62
2023/01/25 03:30:25;;;;;;;16.45;9.32;;;;;;;0.47;100.00;100300.31;5042751;28;20438;-63
2023/01/25 03:38:21;;;;;;;16.35;9.27;;;;;;;0.98;100.00;100296.72;5038524;28;20063;-62
2023/01/25 03:41:07;;;;;;;17.58;9.82;;;;;;;0.89;100.00;100294.16;5055672;28;20123;-62
2023/01/25 03:43:52;;;;;;;15.60;10.00;;;;;;;0.90;100.00;100290.72;5050571;28;20049;-62
2023/01/25 03:46:39;;;;;;;17.48;9.45;;;;;;;1.04;100.00;100295.84;5035560;28;20545;-64
2023/01/25 03:49:23;;;;;;;17.05;10.13;;;;;;;0.90;100.00;100295.03;5035710;28;20468;-63
2023/01/25 03:52:10;;;;;;;20.38;11.93;;;;;;;0.42;100.00;100291.75;5049219;28;20041;-64
2023/01/25 03:54:58;;;;;;;18.33;11.15;;;;;;;0.41;100.00;100289.19;5042002;28;20424;-63
2023/01/25 03:57:43;;;;;;;15.88;10.10;;;;;;;0.35;100.00;100285.75;5038216;28;20094;-63
2023/01/25 04:00:28;;;;;;;15.90;9.40;;;;;;;0.28;100.00;100289.19;5054543;28;20037;-64
2023/01/25 04:03:18;;;;;;;15.02;9.85;;;;;;;0.28;100.00;100283.19;5052177;28;20103;-63
2023/01/25 04:06:07;;;;;;;14.82;9.05;;;;;;;0.42;100.00;100286.59;5051110;28;20391;-63
2023/01/25 04:08:52;;;;;;;18.33;9.70;;;;;;;0.43;100.00;100282.28;5041525;28;20452;-63
2023/01/25 04:11:40;;;;;;;15.68;9.77;;;;;;;0.31;100.00;100278.00;5054972;28;20071;-63
2023/01/25 04:14:24;;;;;;;15.07;8.43;;;;;;;0.19;100.00;100284.03;5053553;28;20049;-67
2023/01/25 04:17:17;;;;;;;14.30;8.75;;;;;;;0.28;100.00;100275.44;5036042;28;20041;-63
2023/01/25 04:20:25;;;;;;;16.05;9.20;;;;;;;0.01;100.00;100279.75;5043897;28;20389;-63
2023/01/25 04:23:12;;;;;;;16.02;9.65;;;;;;;0.17;100.00;100272.88;5054939;28;20047;-63
2023/01/25 04:26:04;;;;;;;15.23;9.90;;;;;;;0.21;100.00;100269.44;5054687;28;20033;-63
2023/01/25 04:28:50;;;;;;;14.30;9.60;;;;;;;0.40;100.00;100266.81;5046950;28;20087;-63
2023/01/25 04:31:36;;;;;;;16.83;9.82;;;;;;;0.25;100.00;100268.56;5034992;28;20045;-63
2023/01/25 04:34:21;;;;;;;14.98;9.65;;;;;;;-0.07;100.00;100262.59;5049126;28;20119;-64
2023/01/25 04:37:06;;;;;;;16.70;8.93;;;;;;;-0.08;100.00;100265.19;5054735;28;20091;-64
2023/01/25 04:39:58;;;;;;;14.77;8.50;;;;;;;-0.03;100.00;100261.72;5054716;28;20510;-64
2023/01/25 04:42:44;;;;;;;17.25;10.48;;;;;;;-0.16;100.00;100258.28;5055015;28;20108;-63
2023/01/25 04:45:31;;;;;;;15.20;9.52;;;;;;;-0.29;100.00;100267.75;5040793;28;20037;-63
2023/01/25 04:48:17;;;;;;;15.50;9.30;;;;;;;-0.07;100.00;100261.72;5054462;28;20102;-65
2023/01/25 04:51:08;;;;;;;14.02;9.32;;;;;;;-0.08;100.00;100272.91;5054715;28;20064;-64
2023/01/25 04:53:53;;;;;;;14.70;8.50;;;;;;;0.01;100.00;100266.88;5054390;28;20142;-64
2023/01/25 04:56:41;;;;;;;13.60;8.32;;;;;;;-0.08;100.00;100273.75;5054172;28;20132;-63
2023/01/25 05:03:56;;;;;;;14.65;9.13;;;;;;;0.08;100.00;100274.59;5054701;28;20124;-63
2023/01/25 05:06:49;;;;;;;14.55;8.93;;;;;;;0.11;100.00;100276.31;5051481;28;20048;-64
2023/01/25 05:09:34;;;;;;;16.33;8.80;;;;;;;0.03;100.00;100273.75;5054127;28;20039;-63
2023/01/25 05:12:20;;;;;;;14.70;9.07;;;;;;;0.08;100.00;100271.19;5053489;28;20055;-63
2023/01/25 05:15:18;;;;;;;13.63;8.45;;;;;;;0.19;100.00;100273.72;5052021;28;20041;-62
2023/01/25 05:18:03;;;;;;;16.25;8.63;;;;;;;0.17;100.00;100275.44;5053347;28;20052;-62
2023/01/25 05:20:54;;;;;;;14.63;9.25;;;;;;;0.24;100.00;100282.31;5080846;28;20123;-62
2023/01/25 05:23:40;;;;;;;13.10;8.25;;;;;;;-0.07;100.00;100285.78;5054414;28;20048;-62
2023/01/25 05:29:42;;;;;;;17.33;9.20;;;;;;;0.35;100.00;100290.03;5053257;28;20045;-63
2023/01/25 05:37:36;;;;;;;12.45;7.78;;;;;;;0.28;100.00;100296.06;5035045;28;20117;-63
2023/01/25 05:40:26;;;;;;;14.15;8.45;;;;;;;0.23;100.00;100296.06;5034777;28;20112;-62
2023/01/25 05:43:13;;;;;;;12.80;8.07;;;;;;;0.32;100.00;100295.19;5033962;28;20051;-63
2023/01/25 05:46:01;;;;;;;14.85;8.10;;;;;;;0.35;100.00;100282.28;5047186;28;20457;-63
2023/01/25 05:48:47;;;;;;;12.15;8.10;;;;;;;0.14;100.00;100291.78;5019564;28;20091;-63
2023/01/25 05:51:32;;;;;;;12.70;8.07;;;;;;;0.31;100.00;100290.91;5033377;28;20111;-63
2023/01/25 05:54:18;;;;;;;11.57;7.80;;;;;;;0.31;100.00;100290.91;5032957;28;20124;-64
2023/01/25 05:57:09;;;;;;;12.07;8.10;;;;;;;-0.02;100.00;100289.19;5061044;28;20492;-64
2023/01/25 05:59:54;;;;;;;12.40;7.85;;;;;;;0.16;100.00;100295.22;5031657;28;20129;-64
2023/01/25 06:02:41;;;;;;;12.82;8.45;;;;;;;0.25;100.00;100296.91;5032704;28;20340;-64
2023/01/25 06:05:28;;;;;;;15.65;9.50;;;;;;;0.11;100.00;100297.78;5033149;28;20049;-64
2023/01/25 06:08:13;;;;;;;13.82;8.27;;;;;;;0.01;100.00;100290.94;5033553;28;20038;-62
2023/01/25 06:11:09;;;;;;;12.20;7.87;;;;;;;-0.31;100.00;100291.81;5032579;28;20038;-63
2023/01/25 06:13:54;;;;;;;15.00;8.90;;;;;;;-0.08;100.00;100296.94;5032948;28;20156;-62
2023/01/25 06:16:39;;;;;;;13.25;8.38;;;;;;;0.01;100.00;100296.09;5061535;28;20045;-63
2023/01/25 06:19:42;;;;;;;15.57;8.63;;;;;;;0.02;100.00;100302.13;5032272;28;20124;-65
2023/01/25 06:22:35;;;;;;;15.38;8.77;;;;;;;-0.02;100.00;100301.25;5032875;28;20037;-64
2023/01/25 06:25:20;;;;;;;15.38;9.35;;;;;;;-0.20;100.00;100308.13;5033700;28;20107;-64
2023/01/25 06:28:05;;;;;;;17.00;9.48;;;;;;;-0.01;100.00;100298.66;5034165;28;20041;-64
2023/01/25 06:30:49;;;;;;;16.23;9.13;;;;;;;-0.18;100.00;100303.81;5033484;28;20056;-64
2023/01/25 06:38:51;;;;;;;15.80;9.70;;;;;;;1.93;100.00;100294.38;5033450;28;20090;-54
2023/01/25 06:41:36;;;;;;;15.57;9.63;;;;;;;3.02;100.00;100295.00;5033700;28;20049;-56
2023/01/25 06:44:22;;;;;;;17.35;10.50;;;;;;;0.77;100.00;100294.22;5033047;28;20037;-54
2023/01/25 06:47:11;;;;;;;16.40;10.80;;;;;;;0.63;100.00;100300.28;5032940;28;20071;-56
2023/01/25 06:49:55;;;;;;;16.15;10.45;;;;;;;0.12;100.00;100293.50;5033556;28;20479;-57
2023/01/25 06:52:40;;;;;;;15.80;9.93;;;;;;;0.82;100.00;100301.06;5032418;28;20049;-57
2023/01/25 06:55:24;;;;;;;16.77;10.77;;;;;;;0.09;100.00;100289.22;5036284;28;20103;-55
2023/01/25 06:58:09;;;;;;;14.90;9.15;;;;;;;0.10;100.00;100290.91;5052992;28;20043;-58
2023/01/25 07:01:02;;;;;;;19.58;11.40;;;;;;;-0.31;100.00;100284.91;5052962;28;20053;-58
2023/01/25 07:03:51;;;;;;;17.23;10.38;;;;;;;-0.04;100.00;100287.50;5051958;28;20469;-57
2023/01/25 07:06:35;;;;;;;15.00;9.77;;;;;;;0.64;100.00;100296.00;5053187;28;20041;-57
2023/01/25 07:09:23;;;;;;;17.65;10.38;;;;;;;0.20;100.00;100299.50;5053273;28;20067;-57
2023/01/25 07:12:07;;;;;;;17.05;11.07;;;;;;;0.52;100.00;100295.16;5052720;28;20044;-58
2023/01/25 07:14:52;;;;;;;25.25;14.77;;;;;;;0.38;100.00;100295.19;5033123;28;20049;-55
2023/01/25 07:17:36;;;;;;;19.20;11.35;;;;;;;-0.18;100.00;100288.34;5032963;28;20038;-55
2023/01/25 07:20:25;;;;;;;20.02;12.07;;;;;;;0.03;100.00;100290.94;5033070;28;20037;-59
2023/01/25 07:23:09;;;;;;;21.35;11.93;;;;;;;-0.29;100.00;100283.19;5033526;28;20072;-59
2023/01/25 07:25:54;;;;;;;18.48;11.25;;;;;;;-0.44;100.00;100289.19;5032697;28;20076;-57
2023/01/25 07:28:38;;;;;;;25.25;14.63;;;;;;;-0.44;100.00;100285.78;5033311;28;20046;-58
2023/01/25 07:31:24;;;;;;;19.20;11.68;;;;;;;-0.34;100.00;100282.34;5033223;28;20465;-55
2023/01/25 07:34:12;;;;;;;21.90;13.15;;;;;;;-0.23;100.00;100294.38;5040440;28;20120;-54
2023/01/25 07:36:57;;;;;;;19.55;12.60;;;;;;;0.34;100.00;100284.00;5051533;28;20036;-55
2023/01/25 07:39:47;;;;;;;18.02;11.25;;;;;;;0.08;100.00;100297.78;5052949;28;20419;-53
2023/01/25 07:42:32;;;;;;;17.00;10.90;;;;;;;-0.31;100.00;100299.53;5051580;28;20037;-54
2023/01/25 07:45:30;;;;;;;19.80;10.82;;;;;;;0.23;100.00;100301.22;5031754;28;20073;-56
2023/01/25 07:48:17;;;;;;;18.52;11.75;;;;;;;0.53;100.00;100294.28;5033072;28;20042;-53
2023/01/25 07:51:11;;;;;;;23.85;13.05;;;;;;;0.18;100.00;100303.78;5032437;28;20037;-56
2023/01/25 07:53:59;;;;;;;21.85;13.10;;;;;;;0.03;100.00;100296.09;5032712;28;20462;-59
2023/01/25 07:56:43;;;;;;;17.52;11.48;;;;;;;0.04;100.00;100292.63;5032320;28;20049;-55
2023/01/25 07:59:30;;;;;;;21.90;11.98;;;;;;;0.14;100.00;100289.22;5032568;28;20041;-54
2023/01/25 08:02:14;;;;;;;17.73;10.57;;;;;;;-0.22;100.00;100290.94;5031411;28;20045;-57
2023/01/25 08:04:59;;;;;;;17.23;11.07;;;;;;;0.12;100.00;100283.19;5032705;28;20069;-56
2023/01/25 08:07:45;;;;;;;17.75;11.32;;;;;;;-0.05;100.00;100281.47;5032588;28;20045;-59
2023/01/25 08:14:25;;;;;;;16.30;10.35;;;;;;;0.08;100.00;100289.22;5073744;23;20043;-67
2023/01/25 08:17:10;;;;;;;19.95;11.95;;;;;;;-0.14;100.00;100281.47;4949227;28;20750;-67
2023/01/25 08:19:55;;;;;;;18.88;11.13;;;;;;;-0.21;100.00;100279.78;4933693;28;20126;-63
2023/01/25 08:22:40;;;;;;;16.40;9.88;;;;;;;-0.04;100.00;100274.63;4963072;28;20383;-62
2023/01/25 08:25:24;;;;;;;17.95;11.23;;;;;;;0.15;100.00;100284.91;4952063;28;20062;-60
2023/01/25 08:28:09;;;;;;;15.32;9.77;;;;;;;0.59;100.00;100288.25;4952174;29;20449;-62
2023/01/25 08:30:54;;;;;;;17.67;11.18;;;;;;;0.51;100.00;100280.53;4952352;28;20497;-62
2023/01/25 08:33:41;;;;;;;16.90;10.80;;;;;;;0.88;100.00;100281.28;4955619;28;20043;-61
2023/01/25 08:36:28;;;;;;;16.80;10.23;;;;;;;0.40;100.00;100277.13;4925653;28;20093;-61
2023/01/25 08:39:13;;;;;;;17.65;10.70;;;;;;;-0.02;100.00;100268.59;4957557;28;20043;-60
2023/01/25 08:41:58;;;;;;;16.55;10.02;;;;;;;0.12;100.00;100278.03;4953559;28;20171;-60
2023/01/25 08:44:43;;;;;;;18.45;11.15;;;;;;;0.19;100.00;100277.19;4950474;28;20054;-60
2023/01/25 08:47:27;;;;;;;18.63;10.85;;;;;;;0.53;100.00;100275.38;4953414;28;20059;-61
2023/01/25 08:50:12;;;;;;;19.20;11.43;;;;;;;1.39;100.00;100260.34;4957094;28;20043;-61
2023/01/25 08:52:56;;;;;;;14.40;10.23;;;;;;;1.33;100.00;100260.38;4936706;28;20050;-61
2023/01/25 08:55:42;;;;;;;19.58;11.27;;;;;;;0.96;100.00;100261.47;4940762;28;20482;-61
2023/01/25 08:58:26;;;;;;;17.35;10.98;;;;;;;0.28;100.00;100257.41;4944500;28;21062;-61
2023/01/25 09:01:14;;;;;;;15.43;10.10;;;;;;;0.55;100.00;100260.75;4954927;28;20141;-60
2023/01/25 09:03:58;;;;;;;15.57;10.18;;;;;;;1.29;100.00;100261.28;4947154;28;20059;-60
2023/01/25 09:06:43;;;;;;;17.33;10.60;;;;;;;0.60;100.00;100265.00;4949807;28;20074;-62
2023/01/25 09:09:29;;;;;;;16.77;10.48;;;;;;;0.17;100.00;100266.00;4957354;28;20047;-63
2023/01/25 09:12:13;;;;;;;15.70;10.00;;;;;;;0.40;100.00;100266.81;4952236;28;20035;-64
2023/01/25 09:14:58;;;;;;;17.27;10.23;;;;;;;0.68;100.00;100261.56;4954328;29;20054;-65
2023/01/25 09:17:43;;;;;;;16.40;10.57;;;;;;;0.47;100.00;100258.19;4952712;29;20059;-63
2023/01/25 09:20:28;;;;;;;17.55;11.00;;;;;;;0.54;100.00;100249.56;4939932;28;20043;-65
2023/01/25 09:23:12;;;;;;;19.80;10.35;;;;;;;0.62;100.00;100257.28;4945288;28;20039;-69
2023/01/25 09:25:59;;;;;;;17.95;10.85;;;;;;;0.34;100.00;100252.22;4952461;28;20043;-64
2023/01/25 09:28:49;;;;;;;15.32;9.70;;;;;;;0.66;100.00;100245.22;4954907;28;20463;-65
2023/01/25 09:31:35;;;;;;;17.05;11.13;;;;;;;0.38;100.00;100247.91;4952211;28;20137;-67
2023/01/25 09:34:52;;;;;;;17.00;10.32;;;;;;;0.96;100.00;100245.97;4952317;28;20055;-67
2023/01/25 09:37:39;;;;;;;17.73;10.25;;;;;;;2.00;100.00;100246.94;4940323;29;20053;-69
2023/01/25 09:40:31;;;;;;;15.95;10.20;;;;;;;1.73;100.00;100246.31;4950051;28;20039;-72
2023/01/25 09:43:44;;;;;;;14.40;9.07;;;;;;;1.15;100.00;100246.72;4950835;28;20134;-71
2023/01/25 09:46:42;;;;;;;16.23;9.65;;;;;;;1.36;100.00;100247.44;4948796;28;20510;-68
2023/01/25 09:49:41;;;;;;;15.23;9.25;;;;;;;0.89;100.00;100252.88;4938106;29;20071;-66
2023/01/25 09:53:23;;;;;;;14.85;9.57;;;;;;;0.92;100.00;100250.28;4947126;28;20114;-70
2023/01/25 09:56:23;;;;;;;15.93;9.68;;;;;;;1.25;100.00;100247.53;4911828;29;20053;-71
2023/01/25 09:59:25;;;;;;;15.20;9.57;;;;;;;1.45;100.00;100237.03;4912604;29;20072;-70
2023/01/25 10:02:33;;;;;;;15.23;9.88;;;;;;;1.68;100.00;100228.25;4910128;29;20143;-65
2023/01/25 10:05:22;;;;;;;16.90;8.93;;;;;;;1.43;100.00;100233.63;4883933;29;20071;-67
2023/01/25 10:08:33;;;;;;;15.27;9.98;;;;;;;0.54;100.00;100218.63;4899087;29;20139;-69
2023/01/25 10:11:27;;;;;;;15.80;10.70;;;;;;;0.27;100.00;100214.41;4910155;29;20052;-68
2023/01/25 10:14:17;;;;;;;17.60;9.57;;;;;;;0.41;100.00;100215.22;4912153;29;20103;-69
2023/01/25 10:17:13;;;;;;;17.55;10.15;;;;;;;1.40;100.00;100205.25;4909023;29;20051;-70
2023/01/25 10:20:16;;;;;;;14.57;8.82;;;;;;;1.04;100.00;100205.50;4910781;29;20071;-70
2023/01/25 10:23:20;;;;;;;17.08;10.13;;;;;;;2.32;100.00;100193.16;4912123;29;20562;-70
2023/01/25 10:26:26;;;;;;;15.75;9.43;;;;;;;1.43;100.00;100194.03;4904549;29;20143;-71
2023/01/25 10:29:18;;;;;;;18.58;10.70;;;;;;;1.45;100.00;100192.28;4934856;29;20046;-68
2023/01/25 10:32:26;;;;;;;19.40;10.25;;;;;;;2.27;100.00;100189.78;4950953;28;20051;-66
2023/01/25 10:35:16;;;;;;;15.68;9.70;;;;;;;2.49;100.00;100187.81;4947689;29;20039;-66
2023/01/25 10:38:10;;;;;;;13.95;9.55;;;;;;;1.06;100.00;100175.34;4941351;29;20146;-66
2023/01/25 10:41:05;;;;;;;15.73;10.35;;;;;;;1.57;100.00;100181.84;4946628;28;20184;-66
2023/01/25 10:44:20;;;;;;;17.98;10.77;;;;;;;1.32;100.00;100176.88;4945342;28;20514;-67
2023/01/25 10:47:10;;;;;;;17.60;11.30;;;;;;;0.98;100.00;100166.78;4950375;28;20446;-61
2023/01/25 10:49:57;;;;;;;15.63;10.52;;;;;;;1.48;100.00;100164.69;4944549;28;20074;-62
2023/01/25 10:52:57;;;;;;;18.33;11.48;;;;;;;1.90;100.00;100153.13;4943903;28;20046;-62
2023/01/25 10:55:53;;;;;;;20.25;12.43;;;;;;;1.86;100.00;100161.75;4941079;28;20055;-61
2023/01/25 10:58:45;;;;;;;19.38;11.77;;;;;;;2.03;100.00;100148.66;4940755;29;20044;-62
2023/01/25 11:01:32;;;;;;;20.92;12.93;;;;;;;1.69;100.00;100157.63;4940741;28;20055;-63
2023/01/25 11:04:22;;;;;;;20.15;12.60;;;;;;;1.52;100.00;100142.28;4944188;28;20498;-66
2023/01/25 11:07:25;;;;;;;16.67;11.02;;;;;;;2.08;100.00;100131.38;4937231;28;20086;-64
2023/01/25 11:10:31;;;;;;;19.08;11.15;;;;;;;2.08;100.00;100136.53;4946509;28;20052;-59
2023/01/25 11:13:16;;;;;;;21.63;11.50;;;;;;;4.46;100.00;100122.31;4946001;28;20118;-65
2023/01/25 11:16:00;;;;;;;24.42;15.13;;;;;;;3.61;100.00;100135.22;4942543;29;20055;-64
2023/01/25 11:18:51;;;;;;;17.95;11.77;;;;;;;2.40;100.00;100128.41;4945196;28;20047;-61
2023/01/25 11:21:49;;;;;;;19.00;11.02;;;;;;;4.18;100.00;100113.38;4935595;28;20048;-62
2023/01/25 11:24:34;;;;;;;19.50;11.68;;;;;;;4.25;100.00;100119.31;4946292;28;20106;-63
2023/01/25 11:27:27;;;;;;;17.38;10.98;;;;;;;2.97;100.00;100110.38;4945760;28;20066;-62
2023/01/25 11:30:20;;;;;;;17.33;11.02;;;;;;;2.44;100.00;100111.97;4951153;28;20046;-61
2023/01/25 11:33:10;;;;;;;18.17;11.00;;;;;;;1.78;100.00;100110.16;4947031;28;20075;-62
2023/01/25 11:36:19;;;;;;;17.15;11.00;;;;;;;2.41;100.00;100099.06;4946160;28;20113;-60
2023/01/25 11:39:16;;;;;;;18.48;11.43;;;;;;;2.55;100.00;100096.28;4951737;28;20142;-62
2023/01/25 11:42:26;;;;;;;19.20;12.23;;;;;;;3.06;99.60;100080.00;4948030;28;20479;-67
2023/01/25 11:45:34;;;;;;;20.20;10.88;;;;;;;3.12;99.21;100075.59;4949097;28;20126;-59
2023/01/25 11:48:34;;;;;;;24.40;13.05;;;;;;;9.46;100.00;100056.16;4946747;28;20055;-62
2023/01/25 11:51:32;;;;;;;16.35;10.18;;;;;;;4.39;100.00;100069.69;4943886;28;20050;-63
2023/01/25 11:54:19;;;;;;;19.98;11.15;;;;;;;3.13;100.00;100064.34;4953110;28;20055;-59
2023/01/25 11:57:22;;;;;;;17.88;10.68;;;;;;;3.28;100.00;100066.66;4960345;28;20054;-67
2023/01/25 12:00:31;;;;;;;16.33;10.88;;;;;;;2.91;100.00;100062.09;4945655;28;20085;-60
2023/01/25 12:03:15;;;;;;;13.95;9.90;;;;;;;1.49;100.00;100064.81;4949342;28;20143;-64
2023/01/25 12:06:15;;;;;;;15.15;9.73;;;;;;;1.35;100.00;100054.63;4961350;28;20050;-59
2023/01/25 12:09:19;;;;;;;14.63;8.80;;;;;;;1.32;100.00;100039.16;4952434;29;20047;-59
2023/01/25 12:12:32;;;;;;;15.68;9.43;;;;;;;1.34;100.00;100025.34;4953067;28;20414;-58
2023/01/25 12:15:47;;;;;;;16.95;10.82;;;;;;;0.99;100.00;100029.13;4949287;28;20051;-57
2023/01/25 12:18:40;;;;;;;15.55;10.32;;;;;;;1.52;100.00;100020.84;4951516;28;20047;-57
2023/01/25 12:21:43;;;;;;;18.33;10.25;;;;;;;1.48;100.00;100024.34;4953140;28;20545;-57
2023/01/25 12:24:37;;;;;;;15.93;10.10;;;;;;;1.54;100.00;100021.69;4955393;28;20047;-58
2023/01/25 12:27:31;;;;;;;18.10;10.65;;;;;;;1.68;100.00;100010.38;4949578;28;20051;-60
2023/01/25 12:30:32;;;;;;;17.80;10.27;;;;;;;2.39;100.00;100002.53;4954612;28;20675;-49
2023/01/25 12:33:23;;;;;;;19.00;11.20;;;;;;;3.13;100.00;100000.47;4950849;28;20047;-60
2023/01/25 12:36:24;;;;;;;18.90;11.95;;;;;;;2.65;100.00;99996.94;4950696;28;20051;-59
2023/01/25 12:39:28;;;;;;;21.55;11.82;;;;;;;3.51;100.00;99992.84;4944992;28;20059;-57
2023/01/25 12:42:19;;;;;;;15.93;10.73;;;;;;;1.99;100.00;99991.03;4954952;28;20402;-61
2023/01/25 12:45:12;;;;;;;14.80;9.75;;;;;;;1.75;100.00;99991.31;4952641;28;20666;-59
2023/01/25 12:48:02;;;;;;;16.77;10.73;;;;;;;1.74;100.00;99983.56;4945425;28;20051;-59
2023/01/25 12:50:54;;;;;;;17.83;10.88;;;;;;;1.91;100.00;99978.22;4952773;28;20161;-60
2023/01/25 12:53:43;;;;;;;16.83;10.88;;;;;;;2.29;100.00;99975.94;4947441;28;20106;-61
2023/01/25 12:56:54;;;;;;;17.15;10.52;;;;;;;2.04;100.00;99973.72;4951074;28;20061;-60
2023/01/25 13:00:15;;;;;;;15.02;10.73;;;;;;;0.84;100.00;99973.34;4954690;28;20093;-58
2023/01/25 13:03:06;;;;;;;16.75;10.98;;;;;;;0.94;100.00;99968.94;4951398;28;20051;-61
2023/01/25 13:06:06;;;;;;;17.13;11.25;;;;;;;1.54;100.00;99970.03;4951268;28;20039;-58
2023/01/25 13:08:54;;;;;;;21.55;12.10;;;;;;;1.79;100.00;99974.91;4951117;28;20047;-58
2023/01/25 13:11:46;;;;;;;18.48;10.95;;;;;;;1.48;100.00;99964.94;4950005;28;20102;-58
2023/01/25 13:14:39;;;;;;;19.92;10.93;;;;;;;1.33;100.00;99960.81;4946518;28;20138;-59
2023/01/25 13:17:26;;;;;;;18.25;10.10;;;;;;;1.17;100.00;99960.13;4936562;28;20035;-64
2023/01/25 13:20:47;;;;;;;18.42;10.30;;;;;;;1.14;100.00;99963.59;4952197;28;20053;-60
2023/01/25 13:23:44;;;;;;;18.75;9.85;;;;;;;1.77;100.00;99968.03;4971052;28;20051;-60
2023/01/25 13:26:29;;;;;;;16.90;10.23;;;;;;;2.26;100.00;99968.22;4956974;29;20055;-58
2023/01/25 13:29:32;;;;;;;17.38;10.63;;;;;;;2.17;100.00;99969.22;4955952;29;20043;-57